sensor_id;sensor_type;location;lat;lon;timestamp;P1;durP1;ratioP1;P2;durP2;ratioP2
18376;SDS011;9315;52.624;13.544;2022-09-28T00:01:13;4.13;;;1.87;;
18376;SDS011;9315;52.624;13.544;2022-09-28T00:03:48;3.07;;;1.50;;
18376;SDS011;9315;52.624;13.544;2022-09-28T00:06:19;4.50;;;1.97;;
18376;SDS011;9315;52.624;13.544;2022-09-28T00:08:49;4.37;;;2.00;;
18376;SDS011;9315;52.624;13.544;2022-09-28T00:11:18;2.23;;;1.87;;
18376;SDS011;9315;52.624;13.544;2022-09-28T00:13:48;3.47;;;1.70;;
18376;SDS011;9315;52.624;13.544;2022-09-28T00:16:20;5.00;;;2.00;;
18376;SDS011;9315;52.624;13.544;2022-09-28T00:18:52;4.53;;;1.60;;
18376;SDS011;9315;52.624;13.544;2022-09-28T00:21:21;5.93;;;1.80;;
18376;SDS011;9315;52.624;13.544;2022-09-28T00:23:55;2.27;;;1.67;;
18376;SDS011;9315;52.624;13.544;2022-09-28T00:26:56;4.40;;;1.57;;
18376;SDS011;9315;52.624;13.544;2022-09-28T00:32:05;4.03;;;1.80;;
18376;SDS011;9315;52.624;13.544;2022-09-28T00:34:37;4.00;;;1.90;;
18376;SDS011;9315;52.624;13.544;2022-09-28T00:37:14;4.73;;;2.00;;
18376;SDS011;9315;52.624;13.544;2022-09-28T00:39:50;4.70;;;1.90;;
18376;SDS011;9315;52.624;13.544;2022-09-28T00:42:18;5.03;;;2.40;;
18376;SDS011;9315;52.624;13.544;2022-09-28T00:44:52;4.60;;;2.80;;
18376;SDS011;9315;52.624;13.544;2022-09-28T00:50:27;4.20;;;2.40;;
18376;SDS011;9315;52.624;13.544;2022-09-28T00:53:05;5.20;;;2.60;;
18376;SDS011;9315;52.624;13.544;2022-09-28T00:55:56;4.77;;;2.70;;
18376;SDS011;9315;52.624;13.544;2022-09-28T00:58:35;4.53;;;2.43;;
18376;SDS011;9315;52.624;13.544;2022-09-28T01:01:10;6.60;;;2.50;;
18376;SDS011;9315;52.624;13.544;2022-09-28T01:03:38;4.10;;;2.60;;
18376;SDS011;9315;52.624;13.544;2022-09-28T01:06:10;6.33;;;3.00;;
18376;SDS011;9315;52.624;13.544;2022-09-28T01:08:48;5.37;;;3.40;;
18376;SDS011;9315;52.624;13.544;2022-09-28T01:11:18;4.70;;;2.67;;
18376;SDS011;9315;52.624;13.544;2022-09-28T01:13:46;5.90;;;2.97;;
18376;SDS011;9315;52.624;13.544;2022-09-28T01:19:36;3.50;;;2.70;;
18376;SDS011;9315;52.624;13.544;2022-09-28T01:25:56;5.83;;;3.10;;
18376;SDS011;9315;52.624;13.544;2022-09-28T01:29:02;3.47;;;2.87;;
18376;SDS011;9315;52.624;13.544;2022-09-28T01:31:44;5.93;;;3.10;;
18376;SDS011;9315;52.624;13.544;2022-09-28T01:34:27;8.90;;;3.27;;
18376;SDS011;9315;52.624;13.544;2022-09-28T01:37:07;5.03;;;2.70;;
18376;SDS011;9315;52.624;13.544;2022-09-28T01:39:39;8.53;;;3.30;;
18376;SDS011;9315;52.624;13.544;2022-09-28T01:42:14;4.13;;;3.10;;
18376;SDS011;9315;52.624;13.544;2022-09-28T01:44:50;4.37;;;3.10;;
18376;SDS011;9315;52.624;13.544;2022-09-28T01:47:22;8.00;;;3.30;;
18376;SDS011;9315;52.624;13.544;2022-09-28T01:49:54;6.27;;;3.27;;
18376;SDS011;9315;52.624;13.544;2022-09-28T01:52:37;3.70;;;2.83;;
18376;SDS011;9315;52.624;13.544;2022-09-28T02:00:41;5.73;;;3.07;;
18376;SDS011;9315;52.624;13.544;2022-09-28T02:03:20;4.53;;;3.20;;
18376;SDS011;9315;52.624;13.544;2022-09-28T02:06:05;8.63;;;3.13;;
18376;SDS011;9315;52.624;13.544;2022-09-28T02:08:51;4.33;;;3.50;;
18376;SDS011;9315;52.624;13.544;2022-09-28T02:11:28;4.03;;;2.93;;
18376;SDS011;9315;52.624;13.544;2022-09-28T02:14:06;9.73;;;4.23;;
18376;SDS011;9315;52.624;13.544;2022-09-28T02:19:16;4.90;;;3.60;;
18376;SDS011;9315;52.624;13.544;2022-09-28T02:21:56;5.40;;;3.57;;
18376;SDS011;9315;52.624;13.544;2022-09-28T02:24:57;4.87;;;3.57;;
18376;SDS011;9315;52.624;13.544;2022-09-28T02:27:57;6.53;;;3.00;;
18376;SDS011;9315;52.624;13.544;2022-09-28T02:30:30;4.50;;;3.17;;
18376;SDS011;9315;52.624;13.544;2022-09-28T02:33:04;7.43;;;3.40;;
18376;SDS011;9315;52.624;13.544;2022-09-28T02:35:48;5.33;;;3.53;;
18376;SDS011;9315;52.624;13.544;2022-09-28T02:38:15;4.73;;;3.20;;
18376;SDS011;9315;52.624;13.544;2022-09-28T02:40:43;4.63;;;3.20;;
18376;SDS011;9315;52.624;13.544;2022-09-28T02:45:58;5.07;;;3.20;;
18376;SDS011;9315;52.624;13.544;2022-09-28T02:52:07;6.30;;;3.30;;
18376;SDS011;9315;52.624;13.544;2022-09-28T02:58:25;6.07;;;3.67;;
18376;SDS011;9315;52.624;13.544;2022-09-28T03:01:49;5.60;;;2.93;;
18376;SDS011;9315;52.624;13.544;2022-09-28T03:04:36;3.73;;;2.70;;
18376;SDS011;9315;52.624;13.544;2022-09-28T03:11:06;6.03;;;2.80;;
18376;SDS011;9315;52.624;13.544;2022-09-28T03:13:57;3.73;;;2.73;;
18376;SDS011;9315;52.624;13.544;2022-09-28T03:16:24;7.43;;;3.53;;
18376;SDS011;9315;52.624;13.544;2022-09-28T03:18:52;4.93;;;2.87;;
18376;SDS011;9315;52.624;13.544;2022-09-28T03:21:20;5.47;;;3.37;;
18376;SDS011;9315;52.624;13.544;2022-09-28T03:23:46;3.43;;;2.60;;
18376;SDS011;9315;52.624;13.544;2022-09-28T03:26:14;4.73;;;2.70;;
18376;SDS011;9315;52.624;13.544;2022-09-28T03:28:41;3.83;;;2.60;;
18376;SDS011;9315;52.624;13.544;2022-09-28T03:31:08;3.57;;;2.70;;
18376;SDS011;9315;52.624;13.544;2022-09-28T03:33:35;3.27;;;2.53;;
18376;SDS011;9315;52.624;13.544;2022-09-28T03:36:03;6.43;;;3.80;;
18376;SDS011;9315;52.624;13.544;2022-09-28T03:38:31;11.03;;;4.20;;
18376;SDS011;9315;52.624;13.544;2022-09-28T03:40:58;5.80;;;4.13;;
18376;SDS011;9315;52.624;13.544;2022-09-28T03:43:26;4.53;;;3.50;;
18376;SDS011;9315;52.624;13.544;2022-09-28T03:45:55;4.40;;;3.33;;
18376;SDS011;9315;52.624;13.544;2022-09-28T03:48:33;9.40;;;4.90;;
18376;SDS011;9315;52.624;13.544;2022-09-28T03:51:04;6.27;;;4.40;;
18376;SDS011;9315;52.624;13.544;2022-09-28T03:53:35;7.67;;;4.33;;
18376;SDS011;9315;52.624;13.544;2022-09-28T03:56:03;12.90;;;4.57;;
18376;SDS011;9315;52.624;13.544;2022-09-28T03:58:36;7.10;;;4.50;;
18376;SDS011;9315;52.624;13.544;2022-09-28T04:01:04;6.43;;;4.27;;
18376;SDS011;9315;52.624;13.544;2022-09-28T04:03:42;7.93;;;4.80;;
18376;SDS011;9315;52.624;13.544;2022-09-28T04:06:09;6.10;;;3.60;;
18376;SDS011;9315;52.624;13.544;2022-09-28T04:08:37;6.40;;;3.90;;
18376;SDS011;9315;52.624;13.544;2022-09-28T04:11:04;6.43;;;3.93;;
18376;SDS011;9315;52.624;13.544;2022-09-28T04:13:32;9.47;;;5.07;;
18376;SDS011;9315;52.624;13.544;2022-09-28T04:15:59;7.83;;;4.33;;
18376;SDS011;9315;52.624;13.544;2022-09-28T04:18:27;7.50;;;5.37;;
18376;SDS011;9315;52.624;13.544;2022-09-28T04:20:58;11.33;;;5.67;;
18376;SDS011;9315;52.624;13.544;2022-09-28T04:23:37;11.93;;;5.30;;
18376;SDS011;9315;52.624;13.544;2022-09-28T04:26:07;8.07;;;4.70;;
18376;SDS011;9315;52.624;13.544;2022-09-28T04:28:44;6.13;;;4.50;;
18376;SDS011;9315;52.624;13.544;2022-09-28T04:31:42;9.33;;;3.87;;
18376;SDS011;9315;52.624;13.544;2022-09-28T04:34:17;5.50;;;3.50;;
18376;SDS011;9315;52.624;13.544;2022-09-28T04:36:47;7.90;;;5.00;;
18376;SDS011;9315;52.624;13.544;2022-09-28T04:39:15;4.53;;;3.27;;
18376;SDS011;9315;52.624;13.544;2022-09-28T04:41:46;9.87;;;5.60;;
18376;SDS011;9315;52.624;13.544;2022-09-28T04:44:13;8.63;;;4.87;;
18376;SDS011;9315;52.624;13.544;2022-09-28T04:46:41;8.10;;;5.03;;
18376;SDS011;9315;52.624;13.544;2022-09-28T04:49:09;12.53;;;5.87;;
18376;SDS011;9315;52.624;13.544;2022-09-28T04:51:36;8.40;;;5.73;;
18376;SDS011;9315;52.624;13.544;2022-09-28T04:54:03;12.97;;;6.07;;
18376;SDS011;9315;52.624;13.544;2022-09-28T04:56:30;13.43;;;6.17;;
18376;SDS011;9315;52.624;13.544;2022-09-28T04:58:57;10.43;;;5.87;;
18376;SDS011;9315;52.624;13.544;2022-09-28T05:01:24;10.33;;;5.53;;
18376;SDS011;9315;52.624;13.544;2022-09-28T05:03:51;11.10;;;6.57;;
18376;SDS011;9315;52.624;13.544;2022-09-28T05:06:19;13.27;;;6.43;;
18376;SDS011;9315;52.624;13.544;2022-09-28T05:08:47;11.03;;;6.53;;
18376;SDS011;9315;52.624;13.544;2022-09-28T05:11:14;19.13;;;6.80;;
18376;SDS011;9315;52.624;13.544;2022-09-28T05:13:43;11.00;;;6.40;;
18376;SDS011;9315;52.624;13.544;2022-09-28T05:16:11;11.93;;;6.10;;
18376;SDS011;9315;52.624;13.544;2022-09-28T05:18:41;8.37;;;5.43;;
18376;SDS011;9315;52.624;13.544;2022-09-28T05:21:09;12.80;;;5.90;;
18376;SDS011;9315;52.624;13.544;2022-09-28T05:23:39;8.20;;;5.53;;
18376;SDS011;9315;52.624;13.544;2022-09-28T05:26:11;9.60;;;5.83;;
18376;SDS011;9315;52.624;13.544;2022-09-28T05:28:39;15.03;;;6.20;;
18376;SDS011;9315;52.624;13.544;2022-09-28T05:31:06;14.23;;;6.17;;
18376;SDS011;9315;52.624;13.544;2022-09-28T05:33:33;14.80;;;6.70;;
18376;SDS011;9315;52.624;13.544;2022-09-28T05:36:01;14.83;;;6.27;;
18376;SDS011;9315;52.624;13.544;2022-09-28T05:38:29;9.33;;;5.50;;
18376;SDS011;9315;52.624;13.544;2022-09-28T05:41:03;12.60;;;6.57;;
18376;SDS011;9315;52.624;13.544;2022-09-28T05:43:32;9.43;;;6.53;;
18376;SDS011;9315;52.624;13.544;2022-09-28T05:45:59;10.30;;;5.73;;
18376;SDS011;9315;52.624;13.544;2022-09-28T05:48:26;9.03;;;5.37;;
18376;SDS011;9315;52.624;13.544;2022-09-28T05:50:53;10.47;;;6.33;;
18376;SDS011;9315;52.624;13.544;2022-09-28T05:53:24;9.23;;;5.33;;
18376;SDS011;9315;52.624;13.544;2022-09-28T05:55:51;8.93;;;5.97;;
18376;SDS011;9315;52.624;13.544;2022-09-28T05:58:22;10.77;;;6.17;;
18376;SDS011;9315;52.624;13.544;2022-09-28T06:00:52;12.50;;;6.23;;
18376;SDS011;9315;52.624;13.544;2022-09-28T06:03:21;10.83;;;5.63;;
18376;SDS011;9315;52.624;13.544;2022-09-28T06:05:49;18.10;;;6.87;;
18376;SDS011;9315;52.624;13.544;2022-09-28T06:08:16;13.97;;;6.03;;
18376;SDS011;9315;52.624;13.544;2022-09-28T06:10:43;12.70;;;6.70;;
18376;SDS011;9315;52.624;13.544;2022-09-28T06:13:11;12.30;;;6.40;;
18376;SDS011;9315;52.624;13.544;2022-09-28T06:15:40;10.37;;;5.67;;
18376;SDS011;9315;52.624;13.544;2022-09-28T06:18:09;9.77;;;5.70;;
18376;SDS011;9315;52.624;13.544;2022-09-28T06:20:41;15.40;;;6.10;;
18376;SDS011;9315;52.624;13.544;2022-09-28T06:23:09;9.83;;;5.00;;
18376;SDS011;9315;52.624;13.544;2022-09-28T06:25:39;18.20;;;6.60;;
18376;SDS011;9315;52.624;13.544;2022-09-28T06:28:08;16.53;;;6.20;;
18376;SDS011;9315;52.624;13.544;2022-09-28T06:30:38;22.93;;;6.87;;
18376;SDS011;9315;52.624;13.544;2022-09-28T06:33:08;17.87;;;6.27;;
18376;SDS011;9315;52.624;13.544;2022-09-28T06:35:38;18.77;;;6.57;;
18376;SDS011;9315;52.624;13.544;2022-09-28T06:38:06;9.80;;;5.87;;
18376;SDS011;9315;52.624;13.544;2022-09-28T06:40:33;14.80;;;5.93;;
18376;SDS011;9315;52.624;13.544;2022-09-28T06:43:04;8.50;;;4.47;;
18376;SDS011;9315;52.624;13.544;2022-09-28T06:45:41;7.30;;;5.10;;
18376;SDS011;9315;52.624;13.544;2022-09-28T06:48:09;13.57;;;5.87;;
18376;SDS011;9315;52.624;13.544;2022-09-28T06:50:38;10.93;;;6.60;;
18376;SDS011;9315;52.624;13.544;2022-09-28T06:53:07;12.03;;;6.83;;
18376;SDS011;9315;52.624;13.544;2022-09-28T06:55:42;9.13;;;5.93;;
18376;SDS011;9315;52.624;13.544;2022-09-28T06:58:14;12.17;;;6.33;;
18376;SDS011;9315;52.624;13.544;2022-09-28T07:00:45;15.13;;;6.43;;
18376;SDS011;9315;52.624;13.544;2022-09-28T07:03:19;10.17;;;6.37;;
18376;SDS011;9315;52.624;13.544;2022-09-28T07:05:49;16.03;;;6.70;;
18376;SDS011;9315;52.624;13.544;2022-09-28T07:08:20;9.80;;;6.37;;
18376;SDS011;9315;52.624;13.544;2022-09-28T07:10:51;12.90;;;6.63;;
18376;SDS011;9315;52.624;13.544;2022-09-28T07:13:22;12.13;;;6.93;;
18376;SDS011;9315;52.624;13.544;2022-09-28T07:16:13;11.27;;;6.17;;
18376;SDS011;9315;52.624;13.544;2022-09-28T07:18:40;11.97;;;6.73;;
18376;SDS011;9315;52.624;13.544;2022-09-28T07:21:07;11.80;;;6.03;;
18376;SDS011;9315;52.624;13.544;2022-09-28T07:23:47;8.37;;;4.97;;
18376;SDS011;9315;52.624;13.544;2022-09-28T07:26:19;8.50;;;6.00;;
18376;SDS011;9315;52.624;13.544;2022-09-28T07:28:49;7.10;;;5.67;;
18376;SDS011;9315;52.624;13.544;2022-09-28T07:31:17;9.03;;;6.50;;
18376;SDS011;9315;52.624;13.544;2022-09-28T07:33:48;8.77;;;5.83;;
18376;SDS011;9315;52.624;13.544;2022-09-28T07:36:16;8.87;;;5.97;;
18376;SDS011;9315;52.624;13.544;2022-09-28T07:38:46;15.47;;;7.40;;
18376;SDS011;9315;52.624;13.544;2022-09-28T07:41:13;9.77;;;6.07;;
18376;SDS011;9315;52.624;13.544;2022-09-28T07:43:42;9.83;;;6.20;;
18376;SDS011;9315;52.624;13.544;2022-09-28T07:46:09;9.20;;;6.33;;
18376;SDS011;9315;52.624;13.544;2022-09-28T07:48:39;6.97;;;5.83;;
18376;SDS011;9315;52.624;13.544;2022-09-28T07:51:08;11.63;;;6.63;;
18376;SDS011;9315;52.624;13.544;2022-09-28T07:53:36;12.23;;;6.30;;
18376;SDS011;9315;52.624;13.544;2022-09-28T07:56:05;12.33;;;6.60;;
18376;SDS011;9315;52.624;13.544;2022-09-28T07:58:35;9.77;;;6.87;;
18376;SDS011;9315;52.624;13.544;2022-09-28T08:01:08;8.87;;;5.70;;
18376;SDS011;9315;52.624;13.544;2022-09-28T08:03:37;12.67;;;6.77;;
18376;SDS011;9315;52.624;13.544;2022-09-28T08:06:05;8.43;;;6.27;;
18376;SDS011;9315;52.624;13.544;2022-09-28T08:08:36;8.13;;;5.80;;
18376;SDS011;9315;52.624;13.544;2022-09-28T08:11:11;10.90;;;7.30;;
18376;SDS011;9315;52.624;13.544;2022-09-28T08:13:45;11.93;;;7.10;;
18376;SDS011;9315;52.624;13.544;2022-09-28T08:16:12;9.93;;;6.90;;
18376;SDS011;9315;52.624;13.544;2022-09-28T08:18:39;9.13;;;6.17;;
18376;SDS011;9315;52.624;13.544;2022-09-28T08:21:08;8.63;;;6.10;;
18376;SDS011;9315;52.624;13.544;2022-09-28T08:23:54;14.10;;;6.63;;
18376;SDS011;9315;52.624;13.544;2022-09-28T08:26:22;9.80;;;6.83;;
18376;SDS011;9315;52.624;13.544;2022-09-28T08:28:49;18.67;;;8.10;;
18376;SDS011;9315;52.624;13.544;2022-09-28T08:31:16;9.47;;;6.97;;
18376;SDS011;9315;52.624;13.544;2022-09-28T08:33:43;10.93;;;7.50;;
18376;SDS011;9315;52.624;13.544;2022-09-28T08:36:10;16.00;;;7.07;;
18376;SDS011;9315;52.624;13.544;2022-09-28T08:38:37;7.93;;;5.17;;
18376;SDS011;9315;52.624;13.544;2022-09-28T08:44:18;10.47;;;6.27;;
18376;SDS011;9315;52.624;13.544;2022-09-28T08:46:52;11.20;;;6.37;;
18376;SDS011;9315;52.624;13.544;2022-09-28T08:49:27;9.17;;;6.60;;
18376;SDS011;9315;52.624;13.544;2022-09-28T08:52:10;9.87;;;5.70;;
18376;SDS011;9315;52.624;13.544;2022-09-28T08:55:04;6.93;;;5.17;;
18376;SDS011;9315;52.624;13.544;2022-09-28T08:57:58;7.33;;;5.10;;
18376;SDS011;9315;52.624;13.544;2022-09-28T09:00:51;6.60;;;4.60;;
18376;SDS011;9315;52.624;13.544;2022-09-28T09:03:40;7.00;;;4.57;;
18376;SDS011;9315;52.624;13.544;2022-09-28T09:20:53;6.37;;;4.93;;
18376;SDS011;9315;52.624;13.544;2022-09-28T09:26:20;9.47;;;5.40;;
18376;SDS011;9315;52.624;13.544;2022-09-28T09:29:01;7.20;;;5.47;;
18376;SDS011;9315;52.624;13.544;2022-09-28T09:35:41;9.90;;;4.47;;
18376;SDS011;9315;52.624;13.544;2022-09-28T09:47:44;7.60;;;5.63;;
18376;SDS011;9315;52.624;13.544;2022-09-28T09:50:35;6.43;;;5.00;;
18376;SDS011;9315;52.624;13.544;2022-09-28T09:56:23;9.60;;;5.30;;
18376;SDS011;9315;52.624;13.544;2022-09-28T09:59:10;12.87;;;5.53;;
18376;SDS011;9315;52.624;13.544;2022-09-28T10:01:45;7.10;;;4.40;;
18376;SDS011;9315;52.624;13.544;2022-09-28T10:04:20;9.27;;;5.13;;
18376;SDS011;9315;52.624;13.544;2022-09-28T10:07:23;7.53;;;5.10;;
18376;SDS011;9315;52.624;13.544;2022-09-28T10:10:52;7.43;;;5.10;;
18376;SDS011;9315;52.624;13.544;2022-09-28T10:13:03;7.07;;;3.90;;
18376;SDS011;9315;52.624;13.544;2022-09-28T10:15:31;9.40;;;4.87;;
18376;SDS011;9315;52.624;13.544;2022-09-28T10:18:02;5.27;;;3.27;;
18376;SDS011;9315;52.624;13.544;2022-09-28T10:20:37;5.90;;;3.30;;
18376;SDS011;9315;52.624;13.544;2022-09-28T10:23:11;6.90;;;3.53;;
18376;SDS011;9315;52.624;13.544;2022-09-28T10:25:53;9.20;;;4.63;;
18376;SDS011;9315;52.624;13.544;2022-09-28T10:28:33;7.27;;;5.07;;
18376;SDS011;9315;52.624;13.544;2022-09-28T10:34:10;13.53;;;6.10;;
18376;SDS011;9315;52.624;13.544;2022-09-28T10:36:58;11.60;;;3.67;;
18376;SDS011;9315;52.624;13.544;2022-09-28T10:39:32;6.13;;;2.93;;
18376;SDS011;9315;52.624;13.544;2022-09-28T10:42:06;7.43;;;3.60;;
18376;SDS011;9315;52.624;13.544;2022-09-28T10:44:51;4.57;;;2.17;;
18376;SDS011;9315;52.624;13.544;2022-09-28T10:47:31;2.90;;;2.00;;
18376;SDS011;9315;52.624;13.544;2022-09-28T10:50:00;6.53;;;2.80;;
18376;SDS011;9315;52.624;13.544;2022-09-28T10:52:37;5.60;;;2.20;;
18376;SDS011;9315;52.624;13.544;2022-09-28T10:55:26;6.50;;;1.73;;
18376;SDS011;9315;52.624;13.544;2022-09-28T10:57:58;5.07;;;1.90;;
18376;SDS011;9315;52.624;13.544;2022-09-28T11:00:30;2.67;;;1.80;;
18376;SDS011;9315;52.624;13.544;2022-09-28T11:06:30;3.10;;;1.50;;
18376;SDS011;9315;52.624;13.544;2022-09-28T11:09:04;6.33;;;2.23;;
18376;SDS011;9315;52.624;13.544;2022-09-28T11:12:12;2.83;;;1.10;;
18376;SDS011;9315;52.624;13.544;2022-09-28T11:14:44;4.23;;;1.00;;
18376;SDS011;9315;52.624;13.544;2022-09-28T11:22:54;2.87;;;0.53;;
18376;SDS011;9315;52.624;13.544;2022-09-28T11:25:57;6.73;;;1.13;;
18376;SDS011;9315;52.624;13.544;2022-09-28T11:28:35;8.23;;;0.90;;
18376;SDS011;9315;52.624;13.544;2022-09-28T11:31:06;2.93;;;0.70;;
18376;SDS011;9315;52.624;13.544;2022-09-28T11:33:35;2.20;;;0.83;;
18376;SDS011;9315;52.624;13.544;2022-09-28T11:44:20;6.20;;;1.00;;
18376;SDS011;9315;52.624;13.544;2022-09-28T11:55:52;6.37;;;1.77;;
18376;SDS011;9315;52.624;13.544;2022-09-28T11:58:59;3.13;;;1.00;;
18376;SDS011;9315;52.624;13.544;2022-09-28T12:01:54;3.53;;;0.70;;
18376;SDS011;9315;52.624;13.544;2022-09-28T12:04:36;8.90;;;1.37;;
18376;SDS011;9315;52.624;13.544;2022-09-28T12:07:14;2.57;;;1.30;;
18376;SDS011;9315;52.624;13.544;2022-09-28T12:13:05;2.47;;;0.80;;
18376;SDS011;9315;52.624;13.544;2022-09-28T12:19:03;3.33;;;0.80;;
18376;SDS011;9315;52.624;13.544;2022-09-28T12:21:48;3.20;;;1.00;;
18376;SDS011;9315;52.624;13.544;2022-09-28T12:24:26;1.60;;;0.90;;
18376;SDS011;9315;52.624;13.544;2022-09-28T12:30:24;3.90;;;0.77;;
18376;SDS011;9315;52.624;13.544;2022-09-28T12:33:00;2.00;;;0.80;;
18376;SDS011;9315;52.624;13.544;2022-09-28T12:38:58;6.33;;;0.90;;
18376;SDS011;9315;52.624;13.544;2022-09-28T12:49:03;3.00;;;0.70;;
18376;SDS011;9315;52.624;13.544;2022-09-28T12:52:07;2.53;;;0.70;;
18376;SDS011;9315;52.624;13.544;2022-09-28T12:55:20;0.73;;;0.37;;
18376;SDS011;9315;52.624;13.544;2022-09-28T12:58:21;2.30;;;0.50;;
18376;SDS011;9315;52.624;13.544;2022-09-28T13:01:32;1.93;;;0.20;;
18376;SDS011;9315;52.624;13.544;2022-09-28T13:07:26;2.53;;;0.70;;
18376;SDS011;9315;52.624;13.544;2022-09-28T13:25:13;3.10;;;0.47;;
18376;SDS011;9315;52.624;13.544;2022-09-28T13:27:47;1.00;;;0.40;;
18376;SDS011;9315;52.624;13.544;2022-09-28T13:30:31;2.60;;;0.60;;
18376;SDS011;9315;52.624;13.544;2022-09-28T13:33:04;0.77;;;0.30;;
18376;SDS011;9315;52.624;13.544;2022-09-28T13:35:47;1.13;;;0.40;;
18376;SDS011;9315;52.624;13.544;2022-09-28T13:50:19;2.73;;;0.50;;
18376;SDS011;9315;52.624;13.544;2022-09-28T14:04:51;3.10;;;0.63;;
18376;SDS011;9315;52.624;13.544;2022-09-28T14:10:18;1.27;;;0.40;;
18376;SDS011;9315;52.624;13.544;2022-09-28T14:13:56;2.17;;;0.43;;
18376;SDS011;9315;52.624;13.544;2022-09-28T14:16:37;1.30;;;0.53;;
18376;SDS011;9315;52.624;13.544;2022-09-28T14:25:04;0.67;;;0.40;;
18376;SDS011;9315;52.624;13.544;2022-09-28T14:31:24;1.60;;;0.83;;
18376;SDS011;9315;52.624;13.544;2022-09-28T14:33:55;2.63;;;0.63;;
18376;SDS011;9315;52.624;13.544;2022-09-28T14:36:33;5.27;;;0.60;;
18376;SDS011;9315;52.624;13.544;2022-09-28T14:39:31;3.40;;;0.50;;
18376;SDS011;9315;52.624;13.544;2022-09-28T14:42:21;1.47;;;0.57;;
18376;SDS011;9315;52.624;13.544;2022-09-28T14:47:43;2.83;;;0.50;;
18376;SDS011;9315;52.624;13.544;2022-09-28T14:50:44;3.57;;;0.53;;
18376;SDS011;9315;52.624;13.544;2022-09-28T14:53:12;0.50;;;0.37;;
18376;SDS011;9315;52.624;13.544;2022-09-28T14:55:52;1.50;;;0.50;;
18376;SDS011;9315;52.624;13.544;2022-09-28T14:58:25;0.40;;;0.30;;
18376;SDS011;9315;52.624;13.544;2022-09-28T15:00:57;2.03;;;0.50;;
18376;SDS011;9315;52.624;13.544;2022-09-28T15:03:32;3.07;;;0.57;;
18376;SDS011;9315;52.624;13.544;2022-09-28T15:06:01;2.13;;;0.60;;
18376;SDS011;9315;52.624;13.544;2022-09-28T15:08:37;0.47;;;0.40;;
18376;SDS011;9315;52.624;13.544;2022-09-28T15:11:05;5.07;;;0.70;;
18376;SDS011;9315;52.624;13.544;2022-09-28T15:13:45;2.57;;;0.47;;
18376;SDS011;9315;52.624;13.544;2022-09-28T15:16:13;3.37;;;0.70;;
18376;SDS011;9315;52.624;13.544;2022-09-28T15:19:07;2.50;;;0.83;;
18376;SDS011;9315;52.624;13.544;2022-09-28T15:21:56;2.37;;;0.70;;
18376;SDS011;9315;52.624;13.544;2022-09-28T15:24:31;1.13;;;0.50;;
18376;SDS011;9315;52.624;13.544;2022-09-28T15:27:00;2.37;;;0.80;;
18376;SDS011;9315;52.624;13.544;2022-09-28T15:30:00;2.27;;;0.50;;
18376;SDS011;9315;52.624;13.544;2022-09-28T15:32:45;3.13;;;0.57;;
18376;SDS011;9315;52.624;13.544;2022-09-28T15:35:14;4.40;;;0.53;;
18376;SDS011;9315;52.624;13.544;2022-09-28T15:37:47;5.70;;;0.97;;
18376;SDS011;9315;52.624;13.544;2022-09-28T15:43:01;2.20;;;0.50;;
18376;SDS011;9315;52.624;13.544;2022-09-28T15:45:41;3.90;;;0.90;;
18376;SDS011;9315;52.624;13.544;2022-09-28T15:48:53;4.20;;;0.87;;
18376;SDS011;9315;52.624;13.544;2022-09-28T15:51:09;5.83;;;0.93;;
18376;SDS011;9315;52.624;13.544;2022-09-28T15:53:41;7.67;;;0.77;;
18376;SDS011;9315;52.624;13.544;2022-09-28T15:56:12;2.13;;;0.70;;
18376;SDS011;9315;52.624;13.544;2022-09-28T15:58:39;5.70;;;2.30;;
18376;SDS011;9315;52.624;13.544;2022-09-28T16:01:17;36.67;;;23.87;;
18376;SDS011;9315;52.624;13.544;2022-09-28T16:07:22;3.47;;;1.10;;
18376;SDS011;9315;52.624;13.544;2022-09-28T16:15:40;4.20;;;1.60;;
18376;SDS011;9315;52.624;13.544;2022-09-28T16:20:38;8.83;;;1.50;;
18376;SDS011;9315;52.624;13.544;2022-09-28T16:23:18;5.93;;;1.17;;
18376;SDS011;9315;52.624;13.544;2022-09-28T16:26:00;2.73;;;1.47;;
18376;SDS011;9315;52.624;13.544;2022-09-28T16:33:57;7.57;;;1.73;;
18376;SDS011;9315;52.624;13.544;2022-09-28T16:36:42;6.43;;;2.00;;
18376;SDS011;9315;52.624;13.544;2022-09-28T16:39:16;4.17;;;1.70;;
18376;SDS011;9315;52.624;13.544;2022-09-28T16:41:46;6.87;;;1.80;;
18376;SDS011;9315;52.624;13.544;2022-09-28T16:44:24;8.17;;;1.77;;
18376;SDS011;9315;52.624;13.544;2022-09-28T16:46:58;5.07;;;1.87;;
18376;SDS011;9315;52.624;13.544;2022-09-28T16:49:25;4.43;;;2.40;;
18376;SDS011;9315;52.624;13.544;2022-09-28T16:51:54;2.70;;;1.77;;
18376;SDS011;9315;52.624;13.544;2022-09-28T16:54:25;4.40;;;2.30;;
18376;SDS011;9315;52.624;13.544;2022-09-28T16:57:13;5.47;;;2.03;;
18376;SDS011;9315;52.624;13.544;2022-09-28T16:59:40;5.67;;;2.10;;
18376;SDS011;9315;52.624;13.544;2022-09-28T17:02:18;4.03;;;2.20;;
18376;SDS011;9315;52.624;13.544;2022-09-28T17:05:12;4.57;;;2.03;;
18376;SDS011;9315;52.624;13.544;2022-09-28T17:08:05;4.13;;;2.40;;
18376;SDS011;9315;52.624;13.544;2022-09-28T17:10:35;5.83;;;2.33;;
18376;SDS011;9315;52.624;13.544;2022-09-28T17:13:34;7.23;;;2.50;;
18376;SDS011;9315;52.624;13.544;2022-09-28T17:16:03;6.90;;;2.70;;
18376;SDS011;9315;52.624;13.544;2022-09-28T17:18:43;4.20;;;2.80;;
18376;SDS011;9315;52.624;13.544;2022-09-28T17:21:12;9.60;;;3.30;;
18376;SDS011;9315;52.624;13.544;2022-09-28T17:23:46;5.03;;;3.20;;
18376;SDS011;9315;52.624;13.544;2022-09-28T17:26:19;6.63;;;4.03;;
18376;SDS011;9315;52.624;13.544;2022-09-28T17:28:59;6.37;;;4.10;;
18376;SDS011;9315;52.624;13.544;2022-09-28T17:31:28;3.93;;;2.73;;
18376;SDS011;9315;52.624;13.544;2022-09-28T17:33:55;4.30;;;1.80;;
18376;SDS011;9315;52.624;13.544;2022-09-28T17:36:23;5.83;;;1.70;;
18376;SDS011;9315;52.624;13.544;2022-09-28T17:38:51;3.30;;;1.60;;
18376;SDS011;9315;52.624;13.544;2022-09-28T17:41:18;2.17;;;1.80;;
18376;SDS011;9315;52.624;13.544;2022-09-28T17:43:46;3.00;;;1.80;;
18376;SDS011;9315;52.624;13.544;2022-09-28T17:46:21;3.33;;;2.13;;
18376;SDS011;9315;52.624;13.544;2022-09-28T17:49:00;2.43;;;2.13;;
18376;SDS011;9315;52.624;13.544;2022-09-28T17:51:32;2.63;;;2.13;;
18376;SDS011;9315;52.624;13.544;2022-09-28T17:54:03;3.80;;;2.07;;
18376;SDS011;9315;52.624;13.544;2022-09-28T17:56:33;3.97;;;2.47;;
18376;SDS011;9315;52.624;13.544;2022-09-28T17:59:02;4.33;;;2.40;;
18376;SDS011;9315;52.624;13.544;2022-09-28T18:01:38;11.33;;;5.43;;
18376;SDS011;9315;52.624;13.544;2022-09-28T18:04:06;4.93;;;2.57;;
18376;SDS011;9315;52.624;13.544;2022-09-28T18:06:53;2.67;;;2.43;;
18376;SDS011;9315;52.624;13.544;2022-09-28T18:09:20;3.20;;;2.20;;
18376;SDS011;9315;52.624;13.544;2022-09-28T18:11:50;3.50;;;2.60;;
18376;SDS011;9315;52.624;13.544;2022-09-28T18:14:26;3.63;;;3.00;;
18376;SDS011;9315;52.624;13.544;2022-09-28T18:16:53;3.60;;;2.60;;
18376;SDS011;9315;52.624;13.544;2022-09-28T18:19:20;3.80;;;2.83;;
18376;SDS011;9315;52.624;13.544;2022-09-28T18:21:47;4.50;;;2.90;;
18376;SDS011;9315;52.624;13.544;2022-09-28T18:24:14;2.97;;;2.47;;
18376;SDS011;9315;52.624;13.544;2022-09-28T18:26:42;3.03;;;2.50;;
18376;SDS011;9315;52.624;13.544;2022-09-28T18:29:09;2.63;;;2.43;;
18376;SDS011;9315;52.624;13.544;2022-09-28T18:31:35;3.23;;;2.77;;
18376;SDS011;9315;52.624;13.544;2022-09-28T18:34:03;3.93;;;2.33;;
18376;SDS011;9315;52.624;13.544;2022-09-28T18:36:31;3.70;;;2.33;;
18376;SDS011;9315;52.624;13.544;2022-09-28T18:39:01;4.00;;;2.20;;
18376;SDS011;9315;52.624;13.544;2022-09-28T18:41:29;3.97;;;2.40;;
18376;SDS011;9315;52.624;13.544;2022-09-28T18:43:56;3.27;;;2.13;;
18376;SDS011;9315;52.624;13.544;2022-09-28T18:46:26;7.30;;;2.17;;
18376;SDS011;9315;52.624;13.544;2022-09-28T18:48:55;2.50;;;1.70;;
18376;SDS011;9315;52.624;13.544;2022-09-28T18:51:22;3.00;;;1.60;;